Time;durP1;ratioP1;P1;durP2;ratioP2;P2;SDS_P1;SDS_P2;PMS_P1;PMS_P2;Temp;Humidity;BMP_temperature;BMP_pressure;BME280_temperature;BME280_humidity;BME280_pressure;Samples;Min_cycle;Max_cycle;Signal;HPM_P1;HPM_P2
2022/12/13 08:40:05;;;;;;;48.30;20.02;;;;;;;-3.58;65.06;95742.13;2087744;28;20575;-55
2022/12/13 08:41:07;;;;;;;40.83;21.60;;;;;;;-3.21;64.29;95742.81;2089688;28;20227;-55
2022/12/13 08:42:14;;;;;;;46.92;23.27;;;;;;;-2.56;62.72;95751.78;2084896;28;20248;-55
2022/12/13 08:43:20;;;;;;;38.38;19.92;;;;;;;-2.57;61.74;95755.22;2082159;28;20625;-56
2022/12/13 08:44:25;;;;;;;46.83;23.83;;;;;;;-2.55;61.46;95756.88;2079475;28;20197;-56
2022/12/13 08:45:27;;;;;;;50.03;23.80;;;;;;;-2.04;60.34;95753.06;2080423;28;20225;-55
2022/12/13 08:46:28;;;;;;;53.00;25.20;;;;;;;-2.26;60.33;95752.41;2081489;28;20228;-60
2022/12/13 08:47:30;;;;;;;49.13;24.00;;;;;;;-2.40;59.83;95737.16;2081483;28;20883;-60
2022/12/13 08:48:33;;;;;;;43.17;23.25;;;;;;;-2.69;61.67;95748.44;2081533;28;20197;-60
2022/12/13 08:49:34;;;;;;;49.47;25.35;;;;;;;-2.57;61.37;95748.38;2083651;28;20225;-60
2022/12/13 08:50:35;;;;;;;52.20;23.55;;;;;;;-2.69;62.08;95751.00;2082027;28;20251;-59
2022/12/13 08:51:37;;;;;;;51.25;26.75;;;;;;;-2.53;60.69;95749.19;2081680;28;20211;-60
2022/12/13 08:52:38;;;;;;;48.70;27.23;;;;;;;-2.19;59.94;95749.75;2081552;28;20226;-60
2022/12/13 08:53:42;;;;;;;57.92;28.95;;;;;;;-2.60;60.54;95737.31;2082987;28;20216;-60
2022/12/13 08:54:44;;;;;;;59.20;28.48;;;;;;;-2.11;59.25;95734.34;2081602;28;20203;-59
2022/12/13 08:55:45;;;;;;;73.07;33.03;;;;;;;-1.48;58.11;95755.88;2080133;28;20200;-60
2022/12/13 08:56:50;;;;;;;57.03;28.67;;;;;;;-0.02;55.99;95752.09;2079495;28;20679;-60
2022/12/13 08:57:52;;;;;;;67.38;31.58;;;;;;;0.21;53.69;95749.09;2082186;28;20198;-60
2022/12/13 08:58:53;;;;;;;53.47;27.80;;;;;;;0.93;53.31;95744.28;2082012;28;20199;-60
2022/12/13 08:59:54;;;;;;;50.95;26.80;;;;;;;0.94;52.42;95737.41;2082115;28;20244;-60
2022/12/13 09:00:56;;;;;;;57.13;28.55;;;;;;;2.20;51.04;95745.63;2082268;28;20208;-59
2022/12/13 09:01:58;;;;;;;48.38;24.58;;;;;;;2.42;49.27;95740.75;2081707;28;20191;-59
2022/12/13 09:03:05;;;;;;;41.05;19.77;;;;;;;2.04;49.76;95738.28;2082945;28;20739;-60
2022/12/13 09:04:10;;;;;;;47.55;23.65;;;;;;;1.86;49.77;95737.00;2083207;28;20197;-60
2022/12/13 09:05:12;;;;;;;43.05;22.52;;;;;;;1.63;50.16;95742.72;2084634;28;20464;-60
2022/12/13 09:06:34;;;;;;;37.33;19.25;;;;;;;0.35;52.96;95740.31;2082330;28;20197;-60
2022/12/13 09:07:38;;;;;;;31.42;16.80;;;;;;;-0.81;55.82;95737.94;2082758;28;20379;-60
2022/12/13 09:08:40;;;;;;;31.52;15.35;;;;;;;-0.95;56.66;95738.13;2082709;28;20208;-59
2022/12/13 09:09:41;;;;;;;28.80;14.15;;;;;;;-0.96;57.67;95727.91;2082075;28;20279;-60
2022/12/13 09:10:44;;;;;;;30.20;13.40;;;;;;;-0.63;57.49;95725.72;2081048;28;20676;-60
2022/12/13 09:11:46;;;;;;;30.38;15.30;;;;;;;-0.58;57.94;95718.81;2081073;28;20193;-60
2022/12/13 09:12:47;;;;;;;31.55;15.05;;;;;;;-1.36;59.19;95724.13;2078313;28;20225;-60
2022/12/13 09:13:49;;;;;;;29.70;12.10;;;;;;;-1.56;59.11;95722.69;2078686;28;20342;-60
2022/12/13 09:14:50;;;;;;;24.52;13.95;;;;;;;-1.52;60.40;95723.50;2082459;28;20216;-60
2022/12/13 09:15:52;;;;;;;47.95;21.48;;;;;;;-1.41;59.81;95736.16;2081138;28;20204;-64
2022/12/13 09:17:01;;;;;;;43.40;22.95;;;;;;;-1.39;60.30;95737.00;2081481;28;20280;-59
2022/12/13 09:18:04;;;;;;;44.97;20.85;;;;;;;-1.37;60.02;95735.25;2080439;28;20513;-60
2022/12/13 09:19:06;;;;;;;41.45;18.35;;;;;;;-0.97;59.53;95732.16;2080414;28;20816;-60
2022/12/13 09:20:27;;;;;;;33.33;15.10;;;;;;;-0.19;58.34;95736.97;2079948;28;20193;-60
2022/12/13 09:21:30;;;;;;;36.08;13.60;;;;;;;-0.07;57.22;95735.91;2081890;28;20288;-60
2022/12/13 09:22:32;;;;;;;26.27;12.07;;;;;;;0.08;57.09;95727.94;2081108;28;20221;-60
2022/12/13 09:23:35;;;;;;;25.23;12.60;;;;;;;0.53;55.19;95723.69;2079121;28;20201;-61
2022/12/13 09:24:46;;;;;;;33.30;15.45;;;;;;;0.90;54.98;95735.78;2080672;28;20189;-59
2022/12/13 09:25:59;;;;;;;40.42;16.10;;;;;;;1.07;53.22;95718.28;2082028;28;20299;-60
2022/12/13 09:27:08;;;;;;;28.77;13.02;;;;;;;1.77;51.98;95735.50;2081550;28;20200;-59
2022/12/13 09:28:10;;;;;;;38.22;12.57;;;;;;;2.08;50.98;95737.34;2082090;28;20636;-60
2022/12/13 09:29:15;;;;;;;35.15;12.82;;;;;;;3.10;49.44;95736.28;2081125;28;20196;-60
2022/12/13 09:30:20;;;;;;;60.78;13.98;;;;;;;3.79;47.71;95738.44;2080476;28;20198;-61
2022/12/13 09:31:21;;;;;;;24.33;11.68;;;;;;;3.23;47.30;95737.59;2080203;28;20291;-59
2022/12/13 09:32:24;;;;;;;38.15;11.77;;;;;;;2.81;48.44;95743.13;2084161;28;20230;-59
2022/12/13 09:33:26;;;;;;;27.13;13.00;;;;;;;2.52;48.08;95742.19;2073527;28;20197;-59
2022/12/13 09:34:33;;;;;;;21.27;11.25;;;;;;;3.28;47.92;95742.63;2074246;28;20224;-59
2022/12/13 09:35:39;;;;;;;26.35;12.45;;;;;;;1.77;49.34;95756.09;2078744;28;20640;-60
2022/12/13 09:36:41;;;;;;;24.38;11.48;;;;;;;2.20;48.75;95758.50;2081713;28;20205;-59
2022/12/13 09:37:42;;;;;;;21.02;11.13;;;;;;;1.87;49.68;95746.44;2078937;28;20619;-59
2022/12/13 09:38:46;;;;;;;28.75;12.18;;;;;;;1.47;50.72;95760.25;2082094;28;20292;-60
2022/12/13 09:39:48;;;;;;;25.27;11.98;;;;;;;1.49;50.79;95755.94;2081651;28;20236;-59
2022/12/13 09:40:59;;;;;;;22.10;12.00;;;;;;;1.85;50.59;95745.63;2081466;28;20220;-60
2022/12/13 09:42:01;;;;;;;29.65;11.93;;;;;;;1.46;50.38;95751.69;2080178;28;20197;-59
2022/12/13 09:43:20;;;;;;;31.15;13.15;;;;;;;0.94;52.25;95755.41;2081476;28;20207;-60
2022/12/13 09:44:34;;;;;;;22.48;11.70;;;;;;;0.90;52.39;95746.94;2081791;28;20556;-59
2022/12/13 09:45:49;;;;;;;22.95;11.20;;;;;;;-0.03;54.00;95742.69;2079607;28;20197;-59
2022/12/13 09:47:06;;;;;;;23.38;11.43;;;;;;;-0.02;55.40;95755.50;2080228;28;20201;-60
2022/12/13 09:48:17;;;;;;;25.88;12.82;;;;;;;1.09;54.23;95746.50;2080292;28;20955;-56
2022/12/13 09:49:33;;;;;;;28.63;11.43;;;;;;;0.48;53.61;95752.03;2079129;28;20206;-55
2022/12/13 09:50:35;;;;;;;32.08;11.85;;;;;;;-0.19;56.39;95757.50;2081512;28;20203;-55
2022/12/13 09:51:50;;;;;;;28.10;13.05;;;;;;;0.09;54.36;95750.19;2075850;28;20947;-55
2022/12/13 09:53:15;;;;;;;36.10;11.93;;;;;;;-0.34;55.60;95756.88;2074866;28;20203;-56
2022/12/13 09:54:24;;;;;;;27.10;12.35;;;;;;;0.08;55.87;95752.78;2075221;28;20248;-55
2022/12/13 09:55:38;;;;;;;26.58;12.32;;;;;;;0.09;54.37;95760.44;2077893;28;20208;-56
2022/12/13 09:56:40;;;;;;;19.67;10.75;;;;;;;0.75;54.47;95760.06;2076112;28;20343;-55
2022/12/13 09:57:42;;;;;;;24.90;12.60;;;;;;;1.34;52.82;95749.41;2076158;28;20231;-55
2022/12/13 09:58:47;;;;;;;21.00;11.38;;;;;;;1.83;52.00;95742.25;2076415;28;20237;-55
2022/12/13 09:59:49;;;;;;;29.70;13.00;;;;;;;2.66;51.25;95743.56;2075399;28;20284;-56
2022/12/13 10:00:58;;;;;;;30.55;11.98;;;;;;;2.49;49.99;95746.56;2074306;28;20201;-55
2022/12/13 10:02:28;;;;;;;19.55;10.50;;;;;;;1.73;51.83;95748.50;2075219;28;20211;-56
2022/12/13 10:03:30;;;;;;;24.92;11.73;;;;;;;1.06;52.13;95742.28;2075029;28;20639;-55
2022/12/13 10:04:31;;;;;;;24.13;11.70;;;;;;;1.11;52.33;95740.47;2077127;28;20211;-55
2022/12/13 10:05:35;;;;;;;25.70;12.38;;;;;;;1.09;53.09;95743.94;2076676;28;20207;-55
2022/12/13 10:06:40;;;;;;;30.70;12.35;;;;;;;1.33;52.48;95742.56;2076796;28;20200;-55
2022/12/13 10:07:42;;;;;;;25.75;11.88;;;;;;;1.26;52.73;95725.59;2074992;28;20228;-55
2022/12/13 10:08:57;;;;;;;27.55;12.30;;;;;;;1.81;51.96;95732.88;2076621;28;20210;-55
2022/12/13 10:10:02;;;;;;;48.80;13.40;;;;;;;1.79;51.62;95736.34;2075799;28;20732;-55
2022/12/13 10:11:04;;;;;;;27.73;12.30;;;;;;;0.98;52.07;95713.34;2077118;28;20197;-57
2022/12/13 10:12:11;;;;;;;30.58;12.50;;;;;;;0.99;53.19;95717.59;2074001;28;20199;-57
2022/12/13 10:13:20;;;;;;;36.80;11.98;;;;;;;1.22;52.51;95729.94;2074200;28;20211;-57
2022/12/13 10:14:35;;;;;;;63.15;12.40;;;;;;;1.22;52.67;95731.66;2076322;28;20212;-56
2022/12/13 10:15:41;;;;;;;33.95;12.80;;;;;;;1.70;51.97;95725.41;2076483;28;20291;-56
2022/12/13 10:16:48;;;;;;;21.42;10.65;;;;;;;1.01;52.29;95712.41;2075822;28;20761;-56
2022/12/13 10:17:49;;;;;;;25.67;11.20;;;;;;;-0.65;55.16;95730.84;2074964;28;20306;-56
2022/12/13 10:18:56;;;;;;;24.85;11.30;;;;;;;-0.76;55.70;95718.22;2076844;28;20716;-55
2022/12/13 10:19:58;;;;;;;18.50;10.02;;;;;;;-0.04;55.88;95715.31;2073945;28;20234;-54
2022/12/13 10:21:03;;;;;;;30.00;11.52;;;;;;;0.63;55.12;95715.75;2077826;28;20226;-55
2022/12/13 10:22:10;;;;;;;24.02;12.30;;;;;;;1.38;54.08;95714.16;2074721;28;20287;-55
2022/12/13 10:23:15;;;;;;;37.75;11.57;;;;;;;2.06;52.21;95720.22;2076644;28;20698;-55
2022/12/13 10:24:53;;;;;;;50.25;12.35;;;;;;;1.08;52.45;95719.97;2076742;28;20210;-55
2022/12/13 10:25:55;;;;;;;48.60;12.60;;;;;;;1.45;52.20;95724.25;2076691;28;20203;-55
2022/12/13 10:27:16;;;;;;;36.65;13.15;;;;;;;1.46;52.79;95719.94;2074742;28;20715;-55
2022/12/13 10:28:25;;;;;;;50.95;13.38;;;;;;;0.26;55.49;95708.78;2074665;28;20198;-55
2022/12/13 10:29:26;;;;;;;37.92;13.38;;;;;;;1.08;53.80;95698.53;2076172;28;20258;-55
2022/12/13 10:30:40;;;;;;;38.83;14.20;;;;;;;1.76;52.80;95713.22;2075285;28;20215;-55
2022/12/13 10:31:44;;;;;;;40.63;12.30;;;;;;;1.59;52.47;95723.09;2074423;28;20204;-55
2022/12/13 10:32:56;;;;;;;34.67;11.30;;;;;;;1.04;52.83;95713.22;2074644;28;20285;-55
2022/12/13 10:34:00;;;;;;;45.17;20.10;;;;;;;2.05;52.59;95719.38;2076830;28;20227;-56
2022/12/13 10:35:33;;;;;;;506.83;296.05;;;;;;;3.07;49.93;95714.00;2076116;28;20663;-55
2022/12/13 10:36:40;;;;;;;68.47;30.88;;;;;;;2.26;50.00;95714.53;2076458;28;20203;-56
2022/12/13 10:37:41;;;;;;;23.52;12.20;;;;;;;1.57;51.57;95720.53;2075374;28;20349;-55
2022/12/13 10:38:45;;;;;;;24.90;11.50;;;;;;;1.06;52.17;95706.28;2075717;28;20197;-55
2022/12/13 10:39:46;;;;;;;39.55;12.95;;;;;;;0.94;52.30;95704.84;2076096;28;20243;-56
2022/12/13 10:40:48;;;;;;;31.67;12.20;;;;;;;1.53;52.53;95705.25;2075406;28;20220;-56
2022/12/13 10:42:01;;;;;;;26.55;14.18;;;;;;;0.74;52.84;95709.56;2073216;28;20220;-57
2022/12/13 10:43:16;;;;;;;26.38;11.63;;;;;;;0.84;53.28;95703.34;2075740;28;20202;-56
2022/12/13 10:44:23;;;;;;;27.10;13.07;;;;;;;1.43;53.50;95686.59;2074981;28;20825;-56
2022/12/13 10:45:28;;;;;;;24.08;11.98;;;;;;;1.17;52.76;95705.19;2074771;28;20278;-61
2022/12/13 10:46:31;;;;;;;29.50;11.82;;;;;;;1.11;52.84;95699.31;2076517;28;20200;-60
2022/12/13 10:47:42;;;;;;;27.70;12.32;;;;;;;0.61;53.72;95696.97;2074136;28;20235;-60
2022/12/13 10:48:51;;;;;;;29.70;12.85;;;;;;;0.50;54.68;95704.03;2075959;28;20256;-60
2022/12/13 10:49:56;;;;;;;24.70;12.07;;;;;;;1.00;53.59;95701.28;2076040;28;20632;-61
2022/12/13 10:51:04;;;;;;;34.42;12.20;;;;;;;0.85;53.31;95699.03;2075984;28;20220;-61
2022/12/13 10:52:19;;;;;;;28.73;11.65;;;;;;;0.94;53.68;95698.84;2076751;28;20733;-60
2022/12/13 10:53:39;;;;;;;26.25;13.02;;;;;;;0.25;55.53;95694.22;2076371;28;20212;-61
2022/12/13 10:54:49;;;;;;;27.85;12.32;;;;;;;-0.29;56.38;95686.66;2074274;28;20890;-60
2022/12/13 10:55:54;;;;;;;23.92;11.93;;;;;;;-0.11;56.10;95694.06;2077196;28;20240;-61
2022/12/13 10:57:03;;;;;;;22.70;12.02;;;;;;;0.61;55.42;95666.13;2074667;28;20307;-61
2022/12/13 10:58:08;;;;;;;31.20;12.85;;;;;;;1.17;53.80;95702.63;2075888;28;20284;-60
2022/12/13 10:59:29;;;;;;;30.08;12.43;;;;;;;2.04;52.25;95704.78;2075463;28;20201;-60
2022/12/13 11:00:36;;;;;;;35.40;12.70;;;;;;;2.19;51.63;95698.41;2076289;28;20805;-61
2022/12/13 11:01:38;;;;;;;29.75;12.88;;;;;;;1.76;52.62;95679.75;2074955;28;20293;-61
2022/12/13 11:02:40;;;;;;;30.65;11.52;;;;;;;2.72;50.82;95691.81;2074800;28;20274;-61
2022/12/13 11:03:42;;;;;;;26.80;11.50;;;;;;;2.58;50.54;95705.09;2073725;28;20204;-61
2022/12/13 11:04:44;;;;;;;25.35;11.75;;;;;;;2.34;50.98;95689.41;2076793;28;20778;-62
2022/12/13 11:05:49;;;;;;;25.33;11.65;;;;;;;2.70;50.00;95697.00;2075829;28;20241;-62
2022/12/13 11:06:55;;;;;;;31.80;13.90;;;;;;;2.71;50.31;95693.53;2076079;28;20657;-61
2022/12/13 11:08:21;;;;;;;26.73;11.65;;;;;;;3.13;49.85;95694.06;2075031;28;20220;-62
2022/12/13 11:09:29;;;;;;;26.13;11.82;;;;;;;2.33;50.93;95692.88;2076221;28;20295;-62
2022/12/13 11:10:39;;;;;;;28.42;11.60;;;;;;;2.12;51.28;95689.13;2075283;28;20233;-62
2022/12/13 11:11:43;;;;;;;35.20;12.32;;;;;;;1.80;51.92;95693.41;2074348;28;20698;-61
2022/12/13 11:12:45;;;;;;;34.83;12.43;;;;;;;0.58;53.72;95686.72;2072739;28;20332;-62
2022/12/13 11:13:52;;;;;;;52.38;13.40;;;;;;;0.51;55.22;95697.16;2074304;28;20235;-62
2022/12/13 11:15:00;;;;;;;36.45;14.35;;;;;;;0.87;54.79;95690.41;2077314;28;20201;-62
2022/12/13 11:16:04;;;;;;;34.33;13.85;;;;;;;0.30;54.84;95681.31;2076143;28;20271;-61
2022/12/13 11:17:09;;;;;;;47.08;13.40;;;;;;;-0.05;56.17;95693.09;2075205;28;20223;-61
2022/12/13 11:18:20;;;;;;;42.50;11.77;;;;;;;0.69;54.71;95691.66;2076870;28;20208;-61
2022/12/13 11:19:36;;;;;;;31.38;13.05;;;;;;;1.19;54.13;95688.84;2076338;28;20201;-62
2022/12/13 11:20:52;;;;;;;22.75;11.70;;;;;;;1.16;54.22;95690.66;2074204;28;20200;-61
2022/12/13 11:21:54;;;;;;;33.33;13.57;;;;;;;1.89;52.55;95682.88;2071758;28;20197;-62
2022/12/13 11:23:21;;;;;;;39.20;13.77;;;;;;;2.34;52.31;95678.28;2074677;28;20201;-61
2022/12/13 11:24:27;;;;;;;29.30;13.85;;;;;;;3.21;50.91;95680.03;2074560;28;20204;-62
2022/12/13 11:25:35;;;;;;;35.40;13.13;;;;;;;3.09;50.56;95682.97;2074860;28;20201;-61
2022/12/13 11:26:41;;;;;;;31.05;13.63;;;;;;;3.56;49.16;95674.63;2077082;28;20283;-62
2022/12/13 11:28:04;;;;;;;29.52;12.77;;;;;;;3.55;48.66;95675.53;2073939;28;20632;-62
2022/12/13 11:29:34;;;;;;;26.38;11.80;;;;;;;3.09;49.64;95662.34;2075322;28;20304;-62
2022/12/13 11:30:50;;;;;;;36.53;12.70;;;;;;;3.07;50.38;95664.13;2074534;28;20557;-62
2022/12/13 11:32:11;;;;;;;25.13;11.85;;;;;;;2.88;50.25;95671.56;2074938;28;20201;-62
2022/12/13 11:33:56;;;;;;;35.80;11.80;;;;;;;2.93;50.56;95662.81;2075094;28;20209;-63
2022/12/13 11:35:13;;;;;;;26.55;12.07;;;;;;;2.61;50.04;95656.84;2069014;28;20723;-61
2022/12/13 11:36:47;;;;;;;25.73;12.20;;;;;;;2.00;51.73;95656.84;2073998;28;20193;-62
2022/12/13 11:38:24;;;;;;;29.08;12.43;;;;;;;1.56;52.93;95649.41;2075598;28;20232;-62
2022/12/13 11:39:31;;;;;;;22.05;11.52;;;;;;;1.35;53.34;95653.34;2072282;28;20238;-63
2022/12/13 11:40:43;;;;;;;28.95;11.35;;;;;;;1.36;52.95;95646.44;2075529;28;20229;-62
2022/12/13 11:41:56;;;;;;;28.52;13.15;;;;;;;2.38;52.38;95654.94;2075795;28;20225;-62
2022/12/13 11:43:00;;;;;;;28.13;12.70;;;;;;;2.74;50.72;95649.63;2076508;28;20260;-62
2022/12/13 11:44:14;;;;;;;21.98;12.68;;;;;;;2.37;50.50;95655.81;2075024;28;20555;-62
2022/12/13 11:45:30;;;;;;;28.08;11.93;;;;;;;1.32;52.19;95650.84;2073954;28;20204;-62
2022/12/13 11:46:40;;;;;;;23.27;12.38;;;;;;;1.58;52.78;95662.22;2073962;28;21079;-62
2022/12/13 11:47:51;;;;;;;21.15;11.20;;;;;;;0.63;53.39;95668.66;2074711;28;20221;-62
2022/12/13 11:49:05;;;;;;;37.75;11.77;;;;;;;0.43;54.44;95671.63;2073259;28;20243;-62
2022/12/13 11:50:14;;;;;;;32.05;14.15;;;;;;;0.21;55.64;95673.81;2075875;28;20205;-62
2022/12/13 11:51:42;;;;;;;40.22;12.60;;;;;;;0.14;55.93;95673.06;2074808;28;20549;-62
2022/12/13 11:52:53;;;;;;;23.73;11.35;;;;;;;0.67;55.32;95677.16;2074106;28;20260;-62
2022/12/13 11:54:02;;;;;;;27.83;11.85;;;;;;;0.80;54.48;95674.28;2074329;28;20201;-61
2022/12/13 11:55:34;;;;;;;26.73;12.50;;;;;;;0.92;54.52;95673.16;2073651;28;20646;-62
2022/12/13 11:56:42;;;;;;;30.38;13.43;;;;;;;-0.10;56.61;95675.22;2075070;28;20248;-61
2022/12/13 11:57:51;;;;;;;35.65;13.80;;;;;;;-0.20;57.21;95674.53;2075805;28;20716;-64
2022/12/13 11:59:11;;;;;;;38.88;13.98;;;;;;;-0.32;57.49;95672.19;2074788;28;20209;-62
2022/12/13 12:00:31;;;;;;;42.10;13.35;;;;;;;-0.23;57.72;95646.38;2075346;28;20650;-62
2022/12/13 12:01:48;;;;;;;25.70;12.90;;;;;;;-0.59;59.33;95666.66;2073819;28;20269;-62
2022/12/13 12:02:57;;;;;;;23.80;12.93;;;;;;;-0.30;58.58;95661.91;2074427;28;20220;-62
2022/12/13 12:04:14;;;;;;;26.50;12.77;;;;;;;-0.18;59.08;95667.66;2074264;28;20207;-62
2022/12/13 12:05:39;;;;;;;28.40;12.55;;;;;;;0.24;57.79;95653.19;2075301;28;20197;-61
2022/12/13 12:06:54;;;;;;;25.05;11.93;;;;;;;-0.12;58.43;95647.91;2074366;28;20320;-62
2022/12/13 12:08:42;;;;;;;24.58;13.07;;;;;;;0.71;57.60;95658.22;2075228;28;20229;-62
2022/12/13 12:09:56;;;;;;;22.00;11.45;;;;;;;0.30;57.92;95653.06;2076208;28;20194;-62
2022/12/13 12:11:30;;;;;;;31.25;13.40;;;;;;;0.91;56.20;95655.22;2075814;28;20485;-62
2022/12/13 12:12:35;;;;;;;26.00;12.10;;;;;;;0.52;56.19;95650.06;2074685;28;20275;-62
2022/12/13 12:13:50;;;;;;;25.88;12.35;;;;;;;0.67;57.23;95652.28;2075052;28;20197;-62
2022/12/13 12:15:00;;;;;;;26.92;12.93;;;;;;;0.95;56.76;95631.13;2075915;28;20642;-62
2022/12/13 12:16:38;;;;;;;27.13;12.90;;;;;;;1.56;54.94;95635.66;2075821;28;20586;-62
2022/12/13 12:17:41;;;;;;;30.55;12.48;;;;;;;1.51;55.04;95634.94;2074665;28;20263;-62
2022/12/13 12:18:43;;;;;;;26.13;13.05;;;;;;;1.78;54.26;95641.13;2075331;28;20204;-63
2022/12/13 12:19:49;;;;;;;25.88;12.25;;;;;;;1.67;55.26;95638.81;2072723;28;20677;-63
2022/12/13 12:21:06;;;;;;;32.53;12.88;;;;;;;1.39;55.69;95636.09;2076007;28;20197;-62
2022/12/13 12:22:42;;;;;;;24.15;11.25;;;;;;;1.09;56.18;95638.50;2073645;28;20201;-63
2022/12/13 12:24:02;;;;;;;25.88;12.60;;;;;;;1.79;55.73;95635.06;2074957;28;20235;-63
2022/12/13 12:25:15;;;;;;;26.02;11.40;;;;;;;1.50;55.37;95639.25;2075147;28;20201;-63
2022/12/13 12:26:25;;;;;;;25.67;12.73;;;;;;;1.68;55.21;95640.50;2075131;28;20213;-62
2022/12/13 12:27:48;;;;;;;29.98;12.30;;;;;;;2.10;54.40;95645.41;2074944;28;20228;-61
2022/12/13 12:29:05;;;;;;;23.02;11.90;;;;;;;1.60;53.79;95645.84;2075627;28;20204;-61
2022/12/13 12:30:18;;;;;;;26.23;12.63;;;;;;;1.17;54.80;95640.91;2073869;28;20208;-61
2022/12/13 12:31:48;;;;;;;23.25;12.00;;;;;;;1.38;55.35;95632.66;2074515;28;20243;-61
2022/12/13 12:32:51;;;;;;;26.75;12.50;;;;;;;1.55;54.77;95633.97;2072051;28;20225;-61
2022/12/13 12:34:26;;;;;;;27.95;12.68;;;;;;;1.69;54.77;95624.19;2073220;28;20603;-61
2022/12/13 12:35:54;;;;;;;25.65;12.00;;;;;;;0.84;55.44;95638.22;2075411;28;20229;-61
2022/12/13 12:37:34;;;;;;;35.30;13.73;;;;;;;0.78;56.54;95645.19;2074092;28;20232;-61
2022/12/13 12:38:53;;;;;;;34.90;12.65;;;;;;;0.67;56.35;95630.91;2074992;28;20193;-61
2022/12/13 12:40:07;;;;;;;31.10;12.65;;;;;;;0.68;56.56;95632.59;2074110;28;20249;-61
2022/12/13 12:41:24;;;;;;;29.38;14.20;;;;;;;1.18;55.92;95632.31;2073199;28;20790;-61
2022/12/13 12:42:33;;;;;;;29.98;13.60;;;;;;;1.17;55.40;95628.91;2073638;28;20236;-60
2022/12/13 12:44:14;;;;;;;34.05;15.07;;;;;;;1.25;56.15;95624.41;2073616;28;20201;-61
2022/12/13 12:45:24;;;;;;;30.13;13.32;;;;;;;1.78;54.80;95634.22;2073294;28;20197;-61
2022/12/13 12:47:22;;;;;;;21.90;11.05;;;;;;;1.89;54.35;95630.53;2074655;28;20255;-61
2022/12/13 12:48:53;;;;;;;24.40;12.50;;;;;;;1.16;56.48;95628.94;2073929;28;20271;-61
2022/12/13 12:50:23;;;;;;;42.78;11.80;;;;;;;0.90;55.62;95630.38;2076083;28;20198;-61
2022/12/13 12:51:35;;;;;;;25.92;11.93;;;;;;;0.67;56.59;95623.19;2076757;28;20263;-61
2022/12/13 12:52:42;;;;;;;28.30;13.68;;;;;;;0.84;56.27;95636.53;2075506;28;20230;-60
2022/12/13 12:53:52;;;;;;;26.23;12.27;;;;;;;0.75;56.54;95616.13;2074074;28;20288;-61
2022/12/13 12:55:03;;;;;;;20.02;11.77;;;;;;;0.99;56.30;95622.47;2073789;28;20236;-62
2022/12/13 12:56:23;;;;;;;23.40;11.60;;;;;;;0.52;56.63;95622.66;2074877;28;20244;-61
2022/12/13 12:57:48;;;;;;;44.15;13.15;;;;;;;0.15;56.52;95606.28;2075327;28;20231;-61
2022/12/13 12:58:57;;;;;;;31.95;13.20;;;;;;;0.43;58.20;95612.56;2075910;28;20229;-61
2022/12/13 13:00:12;;;;;;;28.50;12.98;;;;;;;0.71;57.70;95624.81;2072944;28;20919;-61
2022/12/13 13:01:33;;;;;;;28.75;11.95;;;;;;;-0.11;58.45;95624.75;2074803;28;20663;-61
2022/12/13 13:02:56;;;;;;;31.05;13.38;;;;;;;0.85;57.53;95627.94;2074389;28;20266;-61
2022/12/13 13:04:07;;;;;;;29.83;12.75;;;;;;;1.00;56.85;95633.59;2072358;28;20259;-60
2022/12/13 13:05:23;;;;;;;27.92;12.30;;;;;;;1.05;56.41;95621.47;2075304;28;20205;-60
2022/12/13 13:06:39;;;;;;;22.95;12.18;;;;;;;1.48;55.76;95620.41;2074115;28;20645;-61
2022/12/13 13:07:49;;;;;;;27.63;12.32;;;;;;;1.56;55.27;95622.78;2073275;28;20299;-54
2022/12/13 13:09:05;;;;;;;104.07;51.17;;;;;;;1.35;55.44;95614.75;2074884;28;20721;-59
2022/12/13 13:10:08;;;;;;;174.68;87.90;;;;;;;1.02;55.73;95603.56;2075260;28;20699;-60
2022/12/13 13:11:38;;;;;;;50.65;24.95;;;;;;;1.03;55.79;95606.09;2074661;28;20197;-66
2022/12/13 13:12:43;;;;;;;24.17;13.45;;;;;;;1.14;55.83;95593.81;2074516;28;20224;-65
2022/12/13 13:13:48;;;;;;;21.85;11.95;;;;;;;1.00;54.97;95608.72;2073389;28;20190;-66
2022/12/13 13:14:50;;;;;;;25.67;13.20;;;;;;;1.18;55.69;95610.03;2074829;28;20248;-66
2022/12/13 13:15:54;;;;;;;23.88;12.57;;;;;;;0.81;56.12;95613.44;2076268;28;20201;-66
2022/12/13 13:16:57;;;;;;;22.25;12.25;;;;;;;0.55;56.64;95578.06;2074694;28;20208;-66
2022/12/13 13:17:59;;;;;;;22.17;11.73;;;;;;;0.56;56.53;95579.72;2076164;28;20194;-66
2022/12/13 13:19:04;;;;;;;25.67;12.48;;;;;;;0.75;56.99;95613.56;2072591;28;20313;-66
2022/12/13 13:20:22;;;;;;;25.27;11.75;;;;;;;0.64;56.93;95616.41;2073859;28;21195;-66
2022/12/13 13:21:29;;;;;;;21.77;10.65;;;;;;;0.63;56.93;95612.13;2075631;28;20194;-66
2022/12/13 13:22:34;;;;;;;21.20;10.57;;;;;;;0.28;56.85;95609.44;2073638;28;20337;-66
2022/12/13 13:23:59;;;;;;;27.60;11.90;;;;;;;0.35;57.38;95612.72;2074838;28;20196;-65
2022/12/13 13:25:05;;;;;;;30.38;12.40;;;;;;;0.07;58.20;95610.72;2074790;28;20256;-66
2022/12/13 13:26:26;;;;;;;24.67;11.90;;;;;;;0.20;57.91;95605.34;2074799;28;20281;-66
2022/12/13 13:27:45;;;;;;;33.70;12.48;;;;;;;0.02;58.09;95604.81;2075354;28;20855;-66
2022/12/13 13:28:46;;;;;;;24.88;11.43;;;;;;;0.02;57.69;95606.56;2077638;28;20651;-65
2022/12/13 13:29:48;;;;;;;26.20;11.77;;;;;;;-0.37;58.58;95604.72;2077124;28;20201;-66
2022/12/13 13:31:07;;;;;;;33.45;11.93;;;;;;;-0.73;59.14;95595.06;2076518;28;20208;-66
2022/12/13 13:32:15;;;;;;;29.33;12.30;;;;;;;-0.45;59.82;95604.00;2076139;28;20220;-66
2022/12/13 13:33:47;;;;;;;34.08;12.68;;;;;;;-0.56;59.09;95596.50;2076876;28;20228;-66
2022/12/13 13:34:52;;;;;;;40.47;11.68;;;;;;;-0.72;60.29;95608.75;2074874;28;20197;-60
2022/12/13 13:35:53;;;;;;;27.83;11.65;;;;;;;-0.47;60.15;95598.06;2076746;28;20202;-53
2022/12/13 13:36:56;;;;;;;28.73;12.45;;;;;;;-0.36;60.95;95603.84;2076070;28;20232;-54
2022/12/13 13:38:03;;;;;;;28.95;14.73;;;;;;;-0.65;61.46;95605.19;2075538;28;20213;-50
2022/12/13 13:39:14;;;;;;;38.63;15.07;;;;;;;-0.43;61.44;95602.25;2074077;28;20198;-54
2022/12/13 13:40:37;;;;;;;28.25;12.27;;;;;;;-0.24;60.64;95603.63;2077679;28;20193;-61
2022/12/13 13:41:39;;;;;;;27.65;12.70;;;;;;;-0.34;61.63;95605.50;2076573;28;20197;-59
2022/12/13 13:43:09;;;;;;;24.63;13.52;;;;;;;-0.73;61.04;95613.03;2075892;28;20229;-55
2022/12/13 13:44:48;;;;;;;30.52;13.60;;;;;;;-0.95;61.47;95614.25;2076070;28;20454;-54
2022/12/13 13:46:01;;;;;;;25.58;12.55;;;;;;;-1.24;61.36;95611.25;2077657;28;20288;-62
2022/12/13 13:47:16;;;;;;;29.63;11.10;;;;;;;-1.40;62.37;95617.47;2076356;28;20277;-58
2022/12/13 13:48:23;;;;;;;28.88;12.70;;;;;;;-1.57;62.73;95604.91;2076261;28;20814;-58
2022/12/13 13:49:24;;;;;;;27.63;13.55;;;;;;;-1.91;63.52;95618.16;2076287;28;20197;-59
2022/12/13 13:50:50;;;;;;;24.77;11.07;;;;;;;-1.72;63.65;95611.09;2075966;28;20287;-59
2022/12/13 13:52:16;;;;;;;26.83;12.57;;;;;;;-2.05;64.41;95606.34;2076682;28;20232;-58
2022/12/13 13:53:36;;;;;;;26.13;12.20;;;;;;;-2.15;64.15;95618.44;2075786;28;20254;-58
2022/12/13 13:55:11;;;;;;;24.83;12.30;;;;;;;-2.45;65.05;95611.94;2076374;28;20232;-58
2022/12/13 13:56:30;;;;;;;33.25;10.52;;;;;;;-2.19;65.28;95609.06;2076411;28;20242;-58
2022/12/13 13:58:09;;;;;;;33.65;12.10;;;;;;;-2.43;65.75;95614.47;2074334;28;20235;-58
2022/12/13 13:59:21;;;;;;;36.80;11.77;;;;;;;-2.51;66.05;95611.97;2077774;28;20337;-58
2022/12/13 14:00:55;;;;;;;28.70;12.15;;;;;;;-2.49;66.00;95616.22;2075412;28;20225;-59
2022/12/13 14:02:15;;;;;;;21.25;10.65;;;;;;;-2.63;66.41;95626.56;2074811;28;20195;-58
2022/12/13 14:04:07;;;;;;;26.25;11.45;;;;;;;-2.52;66.31;95626.47;2076807;28;20207;-59
2022/12/13 14:05:24;;;;;;;28.17;12.02;;;;;;;-2.54;67.33;95617.97;2065591;28;20203;-59
2022/12/13 14:06:45;;;;;;;24.63;11.70;;;;;;;-2.75;66.50;95578.13;2075863;28;20242;-59
2022/12/13 14:08:02;;;;;;;34.70;12.60;;;;;;;-2.49;66.12;95621.34;2075220;28;20309;-59
2022/12/13 14:09:39;;;;;;;36.63;12.52;;;;;;;-2.52;66.55;95621.34;2077102;28;20203;-59
2022/12/13 14:10:50;;;;;;;39.75;11.82;;;;;;;-2.55;66.16;95628.19;2073630;28;20225;-59
2022/12/13 14:12:10;;;;;;;23.70;10.90;;;;;;;-2.54;67.09;95628.19;2079902;28;20198;-59